createdAt,value
2022-10-21T00:02:16.837Z,17.60
2022-10-21T00:04:44.435Z,17.80
2022-10-21T00:07:12.200Z,17.70
2022-10-21T00:09:39.972Z,17.80
2022-10-21T00:12:09.322Z,17.80
2022-10-21T00:14:38.882Z,17.30
2022-10-21T00:17:06.607Z,17.60
2022-10-21T00:19:34.437Z,17.60
2022-10-21T00:22:02.202Z,17.90
2022-10-21T00:24:29.520Z,17.60
2022-10-21T00:26:56.886Z,17.60
2022-10-21T00:29:24.600Z,17.60
2022-10-21T00:31:55.354Z,17.80
2022-10-21T00:34:25.907Z,17.60
2022-10-21T00:36:56.321Z,17.50
2022-10-21T00:39:23.991Z,17.60
2022-10-21T00:41:51.366Z,17.50
2022-10-21T00:44:19.886Z,17.70
2022-10-21T00:47:04.651Z,17.80
2022-10-21T00:49:43.784Z,17.70
2022-10-21T00:52:20.274Z,17.60
2022-10-21T00:54:50.168Z,17.50
2022-10-21T00:57:19.945Z,17.60
2022-10-21T00:59:52.692Z,17.60
2022-10-21T01:02:21.986Z,17.60
2022-10-21T01:04:55.593Z,17.60
2022-10-21T01:07:23.404Z,17.80
2022-10-21T01:09:50.860Z,17.60
2022-10-21T01:12:44.661Z,17.60
2022-10-21T01:15:19.215Z,17.60
2022-10-21T01:18:21.384Z,17.80
2022-10-21T01:21:16.394Z,17.60
2022-10-21T01:24:04.188Z,17.60
2022-10-21T01:26:59.243Z,17.60
2022-10-21T01:30:08.398Z,17.60
2022-10-21T01:32:51.459Z,17.60
2022-10-21T01:35:34.831Z,17.80
2022-10-21T01:38:20.075Z,17.60
2022-10-21T01:40:59.594Z,17.60
2022-10-21T01:43:49.901Z,17.60
2022-10-21T01:46:29.624Z,17.70
2022-10-21T01:49:07.878Z,17.60
2022-10-21T01:51:38.053Z,17.60
2022-10-21T01:54:16.094Z,17.80
2022-10-21T01:56:45.722Z,17.80
2022-10-21T01:59:15.937Z,17.60
2022-10-21T02:01:45.979Z,17.80
2022-10-21T02:04:15.843Z,17.60
2022-10-21T02:06:44.216Z,17.80
2022-10-21T02:09:11.842Z,17.50
2022-10-21T02:11:41.898Z,17.50
2022-10-21T02:14:32.600Z,17.50
2022-10-21T02:17:00.760Z,17.60
2022-10-21T02:19:28.879Z,17.80
2022-10-21T02:22:00.389Z,17.60
2022-10-21T02:24:46.976Z,17.60
2022-10-21T02:27:14.980Z,17.60
2022-10-21T02:29:50.265Z,17.80
2022-10-21T02:33:00.978Z,17.80
2022-10-21T02:35:35.013Z,17.60
2022-10-21T02:38:10.262Z,17.60
2022-10-21T02:40:43.504Z,17.70
2022-10-21T02:43:19.696Z,17.60
2022-10-21T02:45:49.094Z,17.70
2022-10-21T02:48:18.451Z,17.70
2022-10-21T02:50:45.964Z,17.70
2022-10-21T02:53:14.010Z,17.90
2022-10-21T02:55:41.359Z,17.70
2022-10-21T02:58:09.427Z,17.60
2022-10-21T03:00:42.987Z,17.70
2022-10-21T03:03:10.785Z,17.60
2022-10-21T03:05:38.143Z,17.80
2022-10-21T03:08:06.042Z,17.60
2022-10-21T03:10:33.500Z,17.60
2022-10-21T03:13:01.681Z,17.70
2022-10-21T03:15:29.183Z,17.70
2022-10-21T03:18:02.516Z,17.90
2022-10-21T03:20:34.393Z,18.00
2022-10-21T03:23:02.343Z,17.90
2022-10-21T03:25:35.086Z,17.70
2022-10-21T03:28:03.056Z,17.70
2022-10-21T03:30:30.430Z,17.70
2022-10-21T03:32:57.852Z,18.00
2022-10-21T03:35:25.279Z,17.70
2022-10-21T03:37:52.705Z,17.70
2022-10-21T03:40:20.571Z,17.90
2022-10-21T03:42:48.400Z,17.70
2022-10-21T03:45:16.009Z,17.90
2022-10-21T03:47:43.458Z,17.80
2022-10-21T03:50:13.980Z,17.90
2022-10-21T03:52:43.959Z,18.00
2022-10-21T03:55:14.461Z,17.80
2022-10-21T03:57:42.269Z,17.80
2022-10-21T04:00:10.810Z,18.00
2022-10-21T04:02:41.079Z,17.80
2022-10-21T04:05:09.289Z,17.80
2022-10-21T04:07:36.984Z,17.60
2022-10-21T04:10:06.091Z,18.10
2022-10-21T04:12:33.884Z,17.90
2022-10-21T04:15:02.912Z,18.10
2022-10-21T04:17:33.182Z,17.90
2022-10-21T04:20:03.657Z,17.90
2022-10-21T04:22:31.224Z,17.90
2022-10-21T04:25:00.963Z,18.00
2022-10-21T04:27:32.216Z,17.90
2022-10-21T04:29:59.914Z,18.10
2022-10-21T04:32:27.383Z,18.10
2022-10-21T04:34:55.056Z,18.00
2022-10-21T04:37:22.487Z,18.20
2022-10-21T04:39:49.977Z,18.00
2022-10-21T04:42:17.427Z,18.00
2022-10-21T04:44:44.952Z,18.00
2022-10-21T04:47:12.377Z,18.00
2022-10-21T04:49:39.813Z,17.90
2022-10-21T04:52:07.454Z,18.00
2022-10-21T04:54:45.821Z,18.20
2022-10-21T04:57:17.223Z,18.20
2022-10-21T04:59:56.426Z,18.20
2022-10-21T05:02:26.940Z,18.00
2022-10-21T05:05:57.328Z,18.10
2022-10-21T05:08:54.278Z,18.10
2022-10-21T05:11:25.077Z,18.20
2022-10-21T05:13:54.969Z,18.00
2022-10-21T05:16:23.951Z,18.20
2022-10-21T05:18:51.489Z,18.00
2022-10-21T05:21:18.942Z,18.00
2022-10-21T05:23:46.730Z,18.00
2022-10-21T05:26:14.206Z,18.00
2022-10-21T05:28:42.748Z,18.20
2022-10-21T05:31:14.102Z,18.20
2022-10-21T05:33:41.677Z,18.10
2022-10-21T05:36:09.307Z,18.30
2022-10-21T05:38:36.633Z,18.10
2022-10-21T05:41:04.359Z,18.30
2022-10-21T05:43:34.626Z,18.10
2022-10-21T05:46:02.368Z,18.10
2022-10-21T05:48:31.678Z,18.10
2022-10-21T05:50:59.081Z,18.10
2022-10-21T05:53:26.549Z,18.10
2022-10-21T05:55:58.839Z,18.10
2022-10-21T05:58:27.077Z,18.10
2022-10-21T06:00:54.807Z,18.10
2022-10-21T06:03:24.495Z,18.10
2022-10-21T06:05:52.258Z,18.10
2022-10-21T06:08:19.593Z,18.10
2022-10-21T06:10:47.015Z,18.10
2022-10-21T06:13:14.842Z,18.10
2022-10-21T06:15:43.827Z,18.10
2022-10-21T06:18:15.405Z,18.10
2022-10-21T06:20:42.822Z,18.10
2022-10-21T06:23:12.498Z,18.10
2022-10-21T06:25:39.845Z,18.10
2022-10-21T06:28:07.147Z,18.30
2022-10-21T06:30:35.698Z,18.10
2022-10-21T06:33:03.389Z,18.20
2022-10-21T06:35:30.774Z,18.20
2022-10-21T06:37:58.389Z,18.10
2022-10-21T06:40:26.043Z,18.30
2022-10-21T06:42:53.414Z,18.10
2022-10-21T06:45:20.942Z,18.10
2022-10-21T06:47:48.336Z,18.10
2022-10-21T06:50:15.895Z,18.10
2022-10-21T06:52:43.214Z,18.10
2022-10-21T06:55:10.524Z,18.10
2022-10-21T06:57:38.090Z,18.10
2022-10-21T07:00:06.326Z,18.20
2022-10-21T07:02:34.073Z,18.20
2022-10-21T07:05:01.543Z,18.20
2022-10-21T07:07:28.993Z,18.20
2022-10-21T07:09:57.980Z,18.30
2022-10-21T07:12:27.166Z,18.30
2022-10-21T07:14:54.785Z,18.30
2022-10-21T07:17:22.444Z,18.30
2022-10-21T07:19:49.856Z,18.30
2022-10-21T07:22:17.913Z,18.30
2022-10-21T07:24:45.230Z,18.30
2022-10-21T07:27:12.620Z,18.30
2022-10-21T07:29:39.962Z,18.40
2022-10-21T07:32:08.255Z,18.40
2022-10-21T07:34:35.583Z,18.30
2022-10-21T07:37:03.101Z,18.30
2022-10-21T07:39:30.696Z,18.30
2022-10-21T07:41:58.413Z,18.30
2022-10-21T07:44:27.063Z,18.30
2022-10-21T07:46:55.090Z,18.30
2022-10-21T07:49:24.001Z,18.30
2022-10-21T07:51:51.526Z,18.40
2022-10-21T07:54:19.612Z,18.60
2022-10-21T07:56:50.673Z,18.30
2022-10-21T07:59:20.497Z,18.30
2022-10-21T08:04:23.177Z,18.60
2022-10-21T08:06:50.706Z,18.50
2022-10-21T08:09:18.302Z,18.50
2022-10-21T08:11:46.007Z,18.30
2022-10-21T08:14:13.374Z,18.30
2022-10-21T08:16:41.837Z,18.30
2022-10-21T08:19:09.629Z,18.30
2022-10-21T08:21:37.457Z,18.40
2022-10-21T08:24:05.561Z,18.40
2022-10-21T08:26:33.655Z,18.40
2022-10-21T08:29:03.637Z,18.40
2022-10-21T08:31:31.253Z,18.40
2022-10-21T08:33:59.342Z,18.40
2022-10-21T08:36:27.013Z,18.40
2022-10-21T08:38:55.009Z,18.50
2022-10-21T08:41:31.376Z,18.60
2022-10-21T08:44:21.278Z,18.60
2022-10-21T08:47:35.800Z,18.40
2022-10-21T08:50:25.876Z,18.50
2022-10-21T08:53:26.078Z,18.50
2022-10-21T08:56:00.791Z,18.50
2022-10-21T08:58:28.258Z,18.90
2022-10-21T09:01:32.266Z,18.70
2022-10-21T09:04:23.578Z,18.60
2022-10-21T09:07:02.495Z,18.60
2022-10-21T09:09:50.043Z,18.70
2022-10-21T09:12:33.844Z,18.80
2022-10-21T09:16:00.433Z,18.70
2022-10-21T09:18:57.513Z,18.70
2022-10-21T09:22:33.883Z,18.80
2022-10-21T09:25:18.494Z,18.80
2022-10-21T09:28:01.926Z,18.80
2022-10-21T09:30:29.754Z,18.80
2022-10-21T09:32:59.560Z,18.80
2022-10-21T09:35:52.637Z,18.80
2022-10-21T09:39:12.274Z,18.80
2022-10-21T09:41:45.254Z,18.90
2022-10-21T09:44:19.447Z,18.90
2022-10-21T09:46:48.684Z,18.90
2022-10-21T09:50:02.064Z,18.90
2022-10-21T09:52:28.392Z,18.90
2022-10-21T09:54:56.543Z,19.00
2022-10-21T09:57:34.588Z,19.00
2022-10-21T10:00:06.031Z,19.00
2022-10-21T10:02:41.725Z,19.10
2022-10-21T10:05:33.439Z,19.40
2022-10-21T10:08:01.360Z,19.10
2022-10-21T10:10:32.724Z,19.20
2022-10-21T10:13:00.791Z,19.20
2022-10-21T10:15:37.331Z,19.20
2022-10-21T10:18:18.292Z,19.20
2022-10-21T10:20:46.316Z,19.30
2022-10-21T10:23:18.826Z,19.60
2022-10-21T10:25:51.710Z,19.50
2022-10-21T10:28:25.630Z,19.40
2022-10-21T10:30:57.141Z,19.40
2022-10-21T10:33:28.227Z,19.60
2022-10-21T10:36:00.171Z,19.40
2022-10-21T10:38:36.118Z,19.60
2022-10-21T10:41:16.484Z,19.40
2022-10-21T10:43:53.421Z,19.40
2022-10-21T10:46:29.361Z,19.80
2022-10-21T10:49:04.117Z,19.50
2022-10-21T10:51:35.142Z,19.50
2022-10-21T10:54:16.350Z,19.50
2022-10-21T10:57:00.545Z,19.60
2022-10-21T10:59:45.249Z,19.60
2022-10-21T11:02:12.945Z,19.60
2022-10-21T11:05:01.364Z,19.70
2022-10-21T11:07:38.477Z,19.70
2022-10-21T11:10:32.213Z,19.80
2022-10-21T11:13:01.567Z,19.80
2022-10-21T11:15:52.281Z,19.80
2022-10-21T11:18:51.532Z,19.70
2022-10-21T11:21:44.293Z,19.80
2022-10-21T11:24:21.326Z,19.80
2022-10-21T11:27:07.403Z,19.90
2022-10-21T11:30:11.727Z,19.70
2022-10-21T11:32:53.757Z,19.70
2022-10-21T11:35:48.664Z,19.70
2022-10-21T11:38:39.098Z,19.70
2022-10-21T11:41:30.900Z,19.80
2022-10-21T11:44:06.081Z,19.80
2022-10-21T11:47:02.669Z,19.80
2022-10-21T11:50:01.413Z,19.90
2022-10-21T11:53:21.882Z,19.90
2022-10-21T11:56:27.463Z,20.00
2022-10-21T11:59:26.864Z,20.00
2022-10-21T12:02:00.700Z,20.10
2022-10-21T12:04:51.164Z,20.10
2022-10-21T12:07:24.374Z,20.20
2022-10-21T12:10:47.822Z,20.20
2022-10-21T12:13:29.598Z,20.20
2022-10-21T12:16:05.051Z,20.30
2022-10-21T12:18:37.400Z,20.30
2022-10-21T12:21:06.497Z,20.30
2022-10-21T12:23:34.030Z,20.40
2022-10-21T12:26:07.251Z,20.50
2022-10-21T12:28:51.160Z,20.50
2022-10-21T12:31:27.913Z,20.60
2022-10-21T12:33:56.100Z,20.70
2022-10-21T12:36:23.522Z,20.70
2022-10-21T12:38:57.068Z,20.70
2022-10-21T12:41:24.537Z,21.00
2022-10-21T12:43:59.002Z,20.90
2022-10-21T12:46:52.461Z,20.90
2022-10-21T12:49:22.626Z,20.90
2022-10-21T12:51:56.302Z,21.00
2022-10-21T12:54:30.527Z,21.00
2022-10-21T12:57:04.921Z,21.10
2022-10-21T12:59:40.760Z,21.40
2022-10-21T13:02:09.463Z,21.20
2022-10-21T13:04:36.798Z,21.20
2022-10-21T13:07:25.356Z,21.20
2022-10-21T13:09:53.712Z,21.60
2022-10-21T13:12:24.437Z,21.20
2022-10-21T13:15:16.986Z,21.20
2022-10-21T13:17:57.555Z,21.20
2022-10-21T13:20:24.994Z,21.30
2022-10-21T13:23:01.871Z,21.30
2022-10-21T13:25:35.202Z,21.40
2022-10-21T13:28:14.625Z,21.40
2022-10-21T13:30:48.070Z,21.40
2022-10-21T13:33:19.906Z,21.30
2022-10-21T13:36:15.219Z,21.40
2022-10-21T13:38:52.805Z,21.40
2022-10-21T13:41:26.597Z,21.40
2022-10-21T13:44:03.156Z,21.70
2022-10-21T13:46:43.279Z,21.70
2022-10-21T13:49:33.196Z,21.50
2022-10-21T13:52:00.574Z,21.50
2022-10-21T13:54:35.035Z,21.50
2022-10-21T13:57:06.725Z,21.50
2022-10-21T13:59:34.891Z,21.60
2022-10-21T14:02:03.548Z,21.60
2022-10-21T14:04:33.909Z,21.60
2022-10-21T14:07:09.283Z,21.80
2022-10-21T14:09:51.211Z,21.70
2022-10-21T14:12:34.783Z,21.70
2022-10-21T14:15:06.935Z,21.60
2022-10-21T14:17:48.114Z,21.70
2022-10-21T14:20:23.041Z,21.70
2022-10-21T14:22:51.563Z,22.00
2022-10-21T14:25:19.220Z,21.70
2022-10-21T14:27:48.918Z,21.80
2022-10-21T14:30:20.721Z,21.90
2022-10-21T14:32:48.990Z,21.70
2022-10-21T14:35:16.422Z,21.70
2022-10-21T14:37:49.832Z,21.80
2022-10-21T14:40:26.696Z,21.70
2022-10-21T14:42:55.257Z,21.70
2022-10-21T14:45:27.963Z,21.90
2022-10-21T14:48:01.975Z,21.80
2022-10-21T14:50:29.333Z,21.80
2022-10-21T14:52:56.892Z,21.80
2022-10-21T14:55:29.910Z,21.70
2022-10-21T14:58:05.249Z,21.70
2022-10-21T15:00:37.640Z,21.70
2022-10-21T15:03:05.094Z,21.70
2022-10-21T15:05:35.552Z,21.80
2022-10-21T15:08:22.729Z,21.80
2022-10-21T15:10:56.900Z,21.60
2022-10-21T15:13:26.695Z,21.80
2022-10-21T15:15:56.300Z,21.90
2022-10-21T15:18:39.210Z,21.60
2022-10-21T15:21:09.935Z,21.60
2022-10-21T15:23:49.991Z,21.60
2022-10-21T15:26:29.531Z,21.60
2022-10-21T15:28:57.277Z,21.60
2022-10-21T15:31:29.203Z,21.60
2022-10-21T15:33:58.550Z,21.60
2022-10-21T15:36:25.933Z,21.50
2022-10-21T15:38:55.326Z,21.50
2022-10-21T15:41:28.602Z,21.90
2022-10-21T15:44:25.806Z,21.80
2022-10-21T15:46:59.100Z,21.50
2022-10-21T15:49:31.316Z,21.40
2022-10-21T15:51:58.790Z,21.40
2022-10-21T15:54:26.327Z,21.40
2022-10-21T15:56:54.908Z,21.40
2022-10-21T15:59:29.650Z,21.50
2022-10-21T16:01:57.984Z,21.30
2022-10-21T16:04:25.549Z,21.40
2022-10-21T16:06:54.113Z,21.30
2022-10-21T16:09:25.249Z,21.30
2022-10-21T16:12:01.950Z,21.30
2022-10-21T16:14:30.720Z,21.60
2022-10-21T16:16:59.331Z,21.30
2022-10-21T16:19:27.144Z,21.30
2022-10-21T16:21:54.783Z,21.20
2022-10-21T16:24:22.273Z,21.20
2022-10-21T16:26:50.740Z,21.20
2022-10-21T16:29:24.064Z,21.20
2022-10-21T16:31:52.254Z,21.20
2022-10-21T16:34:20.630Z,21.20
2022-10-21T16:36:48.499Z,21.50
2022-10-21T16:39:25.302Z,21.20
2022-10-21T16:41:53.261Z,21.20
2022-10-21T16:44:20.963Z,21.20
2022-10-21T16:46:53.401Z,21.30
2022-10-21T16:49:26.572Z,21.30
2022-10-21T16:52:02.150Z,21.10
2022-10-21T16:54:29.592Z,21.30
2022-10-21T16:56:57.017Z,21.10
2022-10-21T16:59:24.436Z,21.10
2022-10-21T17:01:52.216Z,21.20
2022-10-21T17:04:19.902Z,21.00
2022-10-21T17:06:47.532Z,21.10
2022-10-21T17:09:14.951Z,21.00
2022-10-21T17:11:43.016Z,21.00
2022-10-21T17:14:20.113Z,21.00
2022-10-21T17:16:47.752Z,21.00
2022-10-21T17:19:15.541Z,21.20
2022-10-21T17:21:43.736Z,21.00
2022-10-21T17:24:17.764Z,21.00
2022-10-21T17:26:45.708Z,20.90
2022-10-21T17:29:13.209Z,20.90
2022-10-21T17:31:42.420Z,20.90
2022-10-21T17:34:24.495Z,20.90
2022-10-21T17:36:55.118Z,20.90
2022-10-21T17:39:23.050Z,20.90
2022-10-21T17:41:50.592Z,20.90
2022-10-21T17:44:18.710Z,20.90
2022-10-21T17:46:47.604Z,20.90
2022-10-21T17:49:15.354Z,21.00
2022-10-21T17:51:42.617Z,21.10
2022-10-21T17:54:10.590Z,20.90
2022-10-21T17:56:37.949Z,20.90
2022-10-21T17:59:05.312Z,20.90
2022-10-21T18:01:32.921Z,20.90
2022-10-21T18:04:00.289Z,20.90
2022-10-21T18:06:28.012Z,20.90
2022-10-21T18:08:58.167Z,20.90
2022-10-21T18:11:25.700Z,20.80
2022-10-21T18:13:55.244Z,20.80
2022-10-21T18:16:54.072Z,20.80
2022-10-21T18:19:21.356Z,20.70
2022-10-21T18:21:48.710Z,20.70
2022-10-21T18:24:16.459Z,20.70
2022-10-21T18:26:44.945Z,20.70
2022-10-21T18:29:12.668Z,20.70
2022-10-21T18:31:40.288Z,20.70
2022-10-21T18:34:09.493Z,21.00
2022-10-21T18:36:37.079Z,20.70
2022-10-21T18:39:05.384Z,20.90
2022-10-21T18:41:32.804Z,20.70
2022-10-21T18:44:04.657Z,20.70
2022-10-21T18:46:32.527Z,20.60
2022-10-21T18:49:02.959Z,20.60
2022-10-21T18:51:30.526Z,20.90
2022-10-21T18:53:57.818Z,20.60
2022-10-21T18:56:26.779Z,20.60
2022-10-21T18:58:59.042Z,20.60
2022-10-21T19:01:27.162Z,20.50
2022-10-21T19:03:56.019Z,20.60
2022-10-21T19:06:29.837Z,20.50
2022-10-21T19:08:57.758Z,20.50
2022-10-21T19:11:26.847Z,20.50
2022-10-21T19:13:54.477Z,20.50
2022-10-21T19:16:22.617Z,20.40
2022-10-21T19:18:50.088Z,20.40
2022-10-21T19:21:19.585Z,20.40
2022-10-21T19:23:47.877Z,20.30
2022-10-21T19:26:18.802Z,20.30
2022-10-21T19:28:50.874Z,20.30
2022-10-21T19:31:21.527Z,20.30
2022-10-21T19:33:49.198Z,20.40
2022-10-21T19:36:16.781Z,20.20
2022-10-21T19:38:44.809Z,20.20
2022-10-21T19:41:15.847Z,20.20
2022-10-21T19:43:43.631Z,20.40
2022-10-21T19:46:21.065Z,20.20
2022-10-21T19:48:51.360Z,20.10
2022-10-21T19:51:21.983Z,20.10
2022-10-21T19:53:50.873Z,20.10
2022-10-21T19:56:23.887Z,19.80
2022-10-21T19:58:54.489Z,20.10
2022-10-21T20:01:24.625Z,20.30
2022-10-21T20:03:53.802Z,20.00
2022-10-21T20:06:28.446Z,20.00
2022-10-21T20:08:58.203Z,20.00
2022-10-21T20:11:26.975Z,20.00
2022-10-21T20:13:55.291Z,20.00
2022-10-21T20:16:28.412Z,20.00
2022-10-21T20:18:56.875Z,20.00
2022-10-21T20:21:25.054Z,20.10
2022-10-21T20:23:53.348Z,20.10
2022-10-21T20:26:22.641Z,20.00
2022-10-21T20:28:50.891Z,20.20
2022-10-21T20:31:19.037Z,20.00
2022-10-21T20:33:50.944Z,20.00
2022-10-21T20:36:27.563Z,20.20
2022-10-21T20:38:57.249Z,20.30
2022-10-21T20:41:27.956Z,20.00
2022-10-21T20:43:55.370Z,20.00
2022-10-21T20:46:24.485Z,20.00
2022-10-21T20:48:53.955Z,20.00
2022-10-21T20:51:31.758Z,20.00
2022-10-21T20:54:01.955Z,20.00
2022-10-21T20:56:31.971Z,20.00
2022-10-21T20:59:00.197Z,19.90
2022-10-21T21:01:33.962Z,19.90
2022-10-21T21:04:05.015Z,20.10
2022-10-21T21:06:46.412Z,19.90
2022-10-21T21:09:33.604Z,19.90
2022-10-21T21:12:04.007Z,19.90
2022-10-21T21:14:32.358Z,19.90
2022-10-21T21:16:59.821Z,19.80
2022-10-21T21:19:27.222Z,19.80
2022-10-21T21:21:54.574Z,19.80
2022-10-21T21:24:22.352Z,20.20
2022-10-21T21:26:49.699Z,19.80
2022-10-21T21:29:17.321Z,19.80
2022-10-21T21:31:44.690Z,19.80
2022-10-21T21:34:12.173Z,19.80
2022-10-21T21:36:39.497Z,19.80
2022-10-21T21:39:08.016Z,19.90
2022-10-21T21:41:39.236Z,19.70
2022-10-21T21:44:07.141Z,19.70
2022-10-21T21:46:34.466Z,19.70
2022-10-21T21:49:05.905Z,19.70
2022-10-21T21:51:35.937Z,19.90
2022-10-21T21:54:05.043Z,19.60
2022-10-21T21:56:32.419Z,19.60
2022-10-21T21:58:59.801Z,19.60
2022-10-21T22:01:29.257Z,19.90
2022-10-21T22:03:57.785Z,19.60
2022-10-21T22:06:28.854Z,19.60
2022-10-21T22:08:57.467Z,19.60
2022-10-21T22:11:27.951Z,19.60
2022-10-21T22:13:56.032Z,19.60
2022-10-21T22:16:27.194Z,19.60
2022-10-21T22:18:54.815Z,19.60
2022-10-21T22:21:23.373Z,19.60
2022-10-21T22:23:51.145Z,19.60
2022-10-21T22:26:20.597Z,19.50
2022-10-21T22:28:48.718Z,19.50
2022-10-21T22:31:18.534Z,19.50
2022-10-21T22:33:46.430Z,19.50
2022-10-21T22:36:16.246Z,19.50
2022-10-21T22:38:44.809Z,19.50
2022-10-21T22:41:12.988Z,19.50
2022-10-21T22:43:42.662Z,19.50
2022-10-21T22:48:58.407Z,19.50
2022-10-21T22:51:25.871Z,19.80
2022-10-21T22:53:56.199Z,19.50
2022-10-21T22:56:25.919Z,19.50
2022-10-21T22:58:53.717Z,19.50
2022-10-21T23:01:21.328Z,19.50
2022-10-21T23:03:48.760Z,19.50
2022-10-21T23:06:16.141Z,19.50
2022-10-21T23:08:43.946Z,19.40
2022-10-21T23:11:11.517Z,19.40
2022-10-21T23:13:51.061Z,19.40
2022-10-21T23:16:26.815Z,19.40
2022-10-21T23:18:54.279Z,19.40
2022-10-21T23:21:21.926Z,19.40
2022-10-21T23:23:49.294Z,19.40
2022-10-21T23:26:16.647Z,19.40
2022-10-21T23:28:44.199Z,19.40
2022-10-21T23:31:11.513Z,19.40
2022-10-21T23:33:38.900Z,19.40
2022-10-21T23:36:06.619Z,19.40
2022-10-21T23:38:34.092Z,19.40
2022-10-21T23:41:01.482Z,19.40
2022-10-21T23:43:28.748Z,19.40
2022-10-21T23:45:56.111Z,19.40
2022-10-21T23:48:23.383Z,19.40
2022-10-21T23:50:50.857Z,19.40
2022-10-21T23:53:18.318Z,19.40
2022-10-21T23:55:45.777Z,19.40
2022-10-21T23:58:13.646Z,19.80
